createdAt,value
2023-08-10T00:00:01.525Z,1017.126
2023-08-10T00:07:02.247Z,1017.113
2023-08-10T00:14:01.737Z,1017.113
2023-08-10T00:21:01.856Z,1016.893
2023-08-10T00:28:02.213Z,1016.893
2023-08-10T00:35:01.566Z,1017.063
2023-08-10T00:42:02.077Z,1017.063
2023-08-10T00:49:01.514Z,1017.217
2023-08-10T00:56:02.106Z,1017.217
2023-08-10T01:00:01.467Z,1016.928
2023-08-10T01:07:01.481Z,1016.928
2023-08-10T01:14:01.927Z,1017.278
2023-08-10T01:21:01.453Z,1017.278
2023-08-10T01:28:01.578Z,1016.948
2023-08-10T01:35:02.425Z,1016.948
2023-08-10T01:42:02.322Z,1017.515
2023-08-10T01:49:02.278Z,1017.42
2023-08-10T01:56:01.461Z,1017.42
2023-08-10T02:00:01.926Z,1017.42
2023-08-10T02:07:01.599Z,1017.272
2023-08-10T02:14:02.203Z,1017.272
2023-08-10T02:21:01.548Z,1017.48
2023-08-10T02:28:02.308Z,1017.436
2023-08-10T02:35:01.498Z,1017.436
2023-08-10T02:42:01.988Z,1017.334
2023-08-10T02:49:01.922Z,1017.334
2023-08-10T02:56:01.510Z,1017.372
2023-08-10T03:00:01.910Z,1017.372
2023-08-10T03:07:02.005Z,1017.289
2023-08-10T03:14:02.309Z,1017.289
2023-08-10T03:21:01.367Z,1017.488
2023-08-10T03:28:01.686Z,1017.488
2023-08-10T03:35:02.273Z,1017.493
2023-08-10T03:42:01.567Z,1017.493
2023-08-10T03:49:02.003Z,1017.579
2023-08-10T03:56:01.748Z,1017.579
2023-08-10T04:00:02.131Z,1017.848
2023-08-10T04:07:01.382Z,1017.848
2023-08-10T04:14:01.607Z,1017.732
2023-08-10T04:21:02.031Z,1017.732
2023-08-10T04:28:01.771Z,1017.755
2023-08-10T04:35:01.528Z,1017.755
2023-08-10T04:42:01.638Z,1018.035
2023-08-10T04:49:01.428Z,1018.035
2023-08-10T04:56:02.035Z,1018.015
2023-08-10T05:00:01.395Z,1018.015
2023-08-10T05:07:01.571Z,1018.035
2023-08-10T05:14:01.506Z,1018.035
2023-08-10T05:21:01.702Z,1018.319
2023-08-10T05:28:02.099Z,1017.965
2023-08-10T05:35:01.397Z,1017.965
2023-08-10T05:42:01.934Z,1017.961
2023-08-10T05:49:02.167Z,1017.961
2023-08-10T05:56:01.645Z,1018.046
2023-08-10T06:00:02.012Z,1018.046
2023-08-10T06:07:02.131Z,1018.085
2023-08-10T06:14:01.741Z,1018.085
2023-08-10T06:21:01.890Z,1018.155
2023-08-10T06:28:01.387Z,1018.155
2023-08-10T06:35:01.890Z,1018.211
2023-08-10T06:42:02.474Z,1018.211
2023-08-10T06:49:01.927Z,1018.353
2023-08-10T06:56:01.500Z,1018.353
2023-08-10T07:00:33.788Z,1018.295
2023-08-10T07:07:02.576Z,1018.295
2023-08-10T07:14:01.380Z,1018.526
2023-08-10T07:21:01.936Z,1018.526
2023-08-10T07:28:01.363Z,1018.219
2023-08-10T07:35:01.905Z,1018.219
2023-08-10T07:42:01.624Z,1018.272
2023-08-10T07:49:02.380Z,1018.272
2023-08-10T07:56:02.039Z,1018.03
2023-08-10T08:00:01.350Z,1018.03
2023-08-10T08:07:02.080Z,1018.109
2023-08-10T08:14:02.036Z,1018.109
2023-08-10T08:21:01.904Z,1018.15
2023-08-10T08:28:01.355Z,1018.17
2023-08-10T08:35:01.867Z,1018.17
2023-08-10T08:42:02.180Z,1018.08
2023-08-10T08:49:01.450Z,1018.08
2023-08-10T08:56:01.984Z,1018.051
2023-08-10T09:00:01.340Z,1018.051
2023-08-10T09:07:01.422Z,1017.92
2023-08-10T09:14:01.297Z,1017.92
2023-08-10T09:21:02.204Z,1017.94
2023-08-10T09:28:01.866Z,1017.94
2023-08-10T09:35:02.058Z,1018.021
2023-08-10T09:42:01.901Z,1018.021
2023-08-10T09:49:01.985Z,1018.008
2023-08-10T09:56:02.224Z,1018.008
2023-08-10T10:00:01.592Z,1017.91
2023-08-10T10:07:02.476Z,1017.91
2023-08-10T10:14:01.621Z,1017.82
2023-08-10T10:21:01.695Z,1017.82
2023-08-10T10:28:01.708Z,1018.022
2023-08-10T10:35:01.934Z,1018.022
2023-08-10T10:42:01.595Z,1017.645
2023-08-10T10:49:01.906Z,1017.645
2023-08-10T10:56:01.494Z,1017.922
2023-08-10T11:00:01.884Z,1017.922
2023-08-10T11:07:01.843Z,1017.786
2023-08-10T11:14:01.796Z,1017.786
2023-08-10T11:21:01.858Z,1017.663
2023-08-10T11:28:01.466Z,1017.663
2023-08-10T11:35:01.463Z,1017.813
2023-08-10T11:42:01.811Z,1017.517
2023-08-10T11:49:01.301Z,1017.517
2023-08-10T11:56:02.194Z,1017.552
2023-08-10T12:00:01.531Z,1017.552
2023-08-10T12:07:01.894Z,1017.184
2023-08-10T12:14:01.299Z,1017.184
2023-08-10T12:21:01.760Z,1017.253
2023-08-10T12:28:01.781Z,1017.253
2023-08-10T12:35:01.439Z,1017.123
2023-08-10T12:42:02.023Z,1017.123
2023-08-10T12:49:01.557Z,1017.098
2023-08-10T12:56:01.936Z,1017.098
2023-08-10T13:00:02.318Z,1017.3
2023-08-10T13:07:01.713Z,1017.3
2023-08-10T13:14:02.166Z,1017.132
2023-08-10T13:21:02.394Z,1017.132
2023-08-10T13:28:01.585Z,1017.427
2023-08-10T13:35:02.195Z,1017.427
2023-08-10T13:42:01.371Z,1017.235
2023-08-10T13:49:02.277Z,1017.235
2023-08-10T13:56:01.909Z,1017.137
2023-08-10T14:00:02.265Z,1017.137
2023-08-10T14:07:01.621Z,1017.147
2023-08-10T14:14:01.584Z,1017.147
2023-08-10T14:21:01.893Z,1017.08
2023-08-10T14:28:01.780Z,1017.08
2023-08-10T14:35:01.415Z,1016.986
2023-08-10T14:42:01.723Z,1017.006
2023-08-10T14:49:01.749Z,1017.006
2023-08-10T14:56:01.796Z,1016.885
2023-08-10T15:00:02.142Z,1016.885
2023-08-10T15:07:01.332Z,1016.885
2023-08-10T15:14:03.276Z,1016.722
2023-08-10T15:21:01.325Z,1016.783
2023-08-10T15:28:01.569Z,1016.783
2023-08-10T15:35:02.065Z,1016.728
2023-08-10T15:42:02.101Z,1016.728
2023-08-10T15:49:01.852Z,1016.45
2023-08-10T15:56:01.947Z,1016.45
2023-08-10T16:00:01.295Z,1016.408
2023-08-10T16:07:01.836Z,1016.408
2023-08-10T16:14:02.227Z,1016.508
2023-08-10T16:21:02.051Z,1016.508
2023-08-10T16:28:01.728Z,1016.618
2023-08-10T16:35:01.585Z,1016.618
2023-08-10T16:42:01.840Z,1016.689
2023-08-10T16:49:01.467Z,1016.689
2023-08-10T16:56:01.669Z,1016.55
2023-08-10T17:00:02.115Z,1016.55
2023-08-10T17:07:02.286Z,1016.604
2023-08-10T17:14:01.527Z,1016.604
2023-08-10T17:21:01.467Z,1016.773
2023-08-10T17:28:02.223Z,1016.773
2023-08-10T17:35:02.191Z,1016.607
2023-08-10T17:42:02.312Z,1016.77
2023-08-10T17:49:01.865Z,1016.77
2023-08-10T17:56:02.051Z,1016.58
2023-08-10T18:00:01.390Z,1016.58
2023-08-10T18:07:02.102Z,1016.58
2023-08-10T18:14:01.480Z,1016.699
2023-08-10T18:21:01.779Z,1016.548
2023-08-10T18:28:01.980Z,1016.548
2023-08-10T18:35:02.300Z,1016.77
2023-08-10T18:42:01.970Z,1016.77
2023-08-10T18:49:02.274Z,1016.563
2023-08-10T18:56:01.675Z,1016.563
2023-08-10T19:00:02.099Z,1016.423
2023-08-10T19:07:01.314Z,1016.423
2023-08-10T19:14:01.540Z,1016.79
2023-08-10T19:21:01.828Z,1016.79
2023-08-10T19:28:02.289Z,1016.696
2023-08-10T19:35:02.305Z,1016.696
2023-08-10T19:42:01.906Z,1016.901
2023-08-10T19:49:01.740Z,1016.901
2023-08-10T19:56:01.676Z,1017.093
2023-08-10T20:00:02.012Z,1017.093
2023-08-10T20:07:01.935Z,1017.011
2023-08-10T20:14:01.548Z,1017.011
2023-08-10T20:21:01.710Z,1016.883
2023-08-10T20:28:02.229Z,1016.883
2023-08-10T20:35:01.717Z,1017.009
2023-08-10T20:42:01.832Z,1016.929
2023-08-10T20:49:01.945Z,1016.929
2023-08-10T20:56:01.386Z,1016.917
2023-08-10T21:00:01.747Z,1016.917
2023-08-10T21:07:02.019Z,1016.917
2023-08-10T21:14:01.456Z,1017.403
2023-08-10T21:21:01.939Z,1017.468
2023-08-10T21:28:01.671Z,1017.468
2023-08-10T21:35:01.843Z,1017.373
2023-08-10T21:42:01.416Z,1017.373
2023-08-10T21:49:01.640Z,1017.372
2023-08-10T21:56:02.210Z,1017.372
2023-08-10T22:00:01.753Z,1017.544
2023-08-10T22:07:02.185Z,1017.544
2023-08-10T22:14:02.040Z,1017.538
2023-08-10T22:21:02.137Z,1017.538
2023-08-10T22:28:01.324Z,1017.427
2023-08-10T22:35:01.496Z,1017.427
2023-08-10T22:42:01.668Z,1017.37
2023-08-10T22:49:01.818Z,1017.37
2023-08-10T22:56:02.218Z,1017.386
2023-08-10T23:00:01.590Z,1017.386
2023-08-10T23:07:01.741Z,1017.37
2023-08-10T23:14:01.393Z,1017.37
2023-08-10T23:21:01.948Z,1017.393
2023-08-10T23:28:01.839Z,1017.393
2023-08-10T23:35:02.128Z,1017.301
2023-08-10T23:42:01.995Z,1017.214
2023-08-10T23:49:01.965Z,1017.214
2023-08-10T23:56:01.437Z,1017.255
